Accueil
METAR-TAF:

METAR-TAF

Aéroports :

Ingolstadt, Allemagne

latitude: 48-43N, longitude: 011-32E, altitude: 367 m

Observation

Le bulletin a été fait il y a 31 minutes, à 09:20 UTC
Vent 5 kt de est/nord-est
Température 16°C
Humidité 45%
Pression 1020 hPa
Visibilité 10 km ou plus

METAR: ETSI 300920Z AUTO 07005KT 9999 // ////// 16/04 Q1020 ///

Heure: 11:51 (09:51 UTC)

Prévision

Le bulletin a été fait il y a 23 heures et 36 minutes, à 10:15 UTC
Prévision valable du 29 à 11 UTC au 29 à 20 UTC
Vent 10 kt de est/nord-est
Visibilité: 1100 m
Nuages épars à une hauteur de 4000 ft

TAF: ETSI 291015Z 2911/2920 07010KT 9999 NSW SCT040 CNL 1100

Observations et prévisions météorologiques de plus de 4000 aéroports (messages METAR et TAF).

Les stations disponibles sont représentées par des disques jaunes et rouges sur la carte.

Passer la souris dessus pour voir le nom de la station.

Cliquer dessus pour voir les observations et prévisions météorologiques.

Pour changer de carte: cliquez sur les boutons verts avec une croix noire pour zoomer, sur le bouton vert avec un tiret pour effectuer un zoom arrière, ou sur les flèches vertes pour les cartes adjacentes.


METAR-TAF: